Предлагаем Вашему вниманию английскую версию страницы: AUTOTAF.ME 22954 - aviation weather forecast Vozhega

AUTOTAF 22954 - авиапрогноз Вожега

Сегодня рассвет 03:52 UTC, восход солнца 04:38 UTC,
местный полдень 09:02 UTC, заход солнца 13:27 UTC,
наступление темноты 14:12 UTC.

Краткий прогноз 22954 на 9 часов

AUTOTAF.ME 22954 292000Z 2921/3006 19004MPS 5000 BR OVC011    
  FM300000 20003MPS 3000 BR OVC005 
  FM300300 20004MPS 5000 BR OVC011 
  BECMG 3004/3006 -RA BR

Детальный прогноз 22954 на 24 часа

AUTOTAF.ME 22954 292000Z 2921/3021 19004MPS 5000 BR OVC011 TX07/2921Z TN05/3015Z  
  FM300000 20003MPS 3000 BR OVC005 
  FM300300 20004MPS 5000 BR OVC011 
  BECMG 3004/3006 -RA BR  
  FM300900 21004MPS 9999 BKN011 
  FM301200 20003MPS 5000 BR OVC010 
  FM301500 21003MPS 5000 -RA BR OVC004  
  FM302100 23003MPS 3000 -RA BR OVC002

Подробный табличный прогноз

Время (UTC) miniAUTOTAF на 3 ч WX FZLVL
M AGL
ICE TURB Т
(°С)
Тd
(°С)
f(%) QNH
(гПа)
WIND/T
18 20004MPS 5000 -RA BR OVC003 -RA BR 1950 FBL FL90/FL110 8 7 93 1016 ...
21 19004MPS 5000 BR OVC011 BR 1950 MOD FL90/FL110 7 5 91 1015 ...
30.10.2020
00 20003MPS 3000 BR OVC005 BR 1950 FBL FL90/FL110 6 5 92 1014 ...
03 20004MPS 5000 BR OVC011 BR 1950 FBL FL90/FL170 6 5 92 1013 ...
06 19003MPS 5000 -RA BR OVC010 -RA BR 1800 MOD FL90/FL110 6 4 92 1014 ...
09 21004MPS 9999 BKN011 1800 MOD FL70/FL110 6 4 89 1013 ...
12 20003MPS 5000 BR OVC010 BR 1800 MOD FL70/FL80 6 4 90 1013 ...
15 21003MPS 5000 -RA BR OVC004 -RA BR 1650 FBL FL70/FL190 5 4 92 1012 ...
18 22003MPS 5000 -RA BR OVC003 -RA BR 1500 FBL FL70/FL190 5 4 92 1012 ...
21 23003MPS 3000 -RA BR OVC002 -RA BR 1350 FBL FL70/FL170 5 4 95 1012 ...
31.10.2020
00 VRB02MPS 3000 -RA BR OVC001 -RA BR 1350 MOD FL70/FL110 5 5 97 1013 ...
03 VRB02MPS 5000 BR OVC009 BR 810 MOD FL40/FL50 5 5 96 1014 ...
06 36003MPS 5000 -RA BR OVC004 -RA BR 630 MOD FL40/FL70 5 4 92 1017 ...
09 02006MPS 9999 -SN OVC011 -SN 240 FBL FL20/FL50 MOD SFC/FL40 3 -0 79 1020 ...
12 02006MPS 9999 BKN010 180 MOD SFC/FL20 2 -3 68 1022 ...
15 VRB02MPS 9999 SCT013 SFC MOD FL20/FL30 -1 -2 88 1025 ...


Широта 60.5°, долгота 40.2°, высота 202 м абс.
Средняя высота рельефа местности 168 м абс.
Прогнозы обновляются четыре раза в сутки: в 02, 08, 14, 20 ч всемирного времени.


Выбрать прогноз по другой модели Вожега
Онлайн-сводка гроз по Вожега (для РФ и ближнего зарубежья)
Карта фактических гроз в окрестностях Вожега
Динамические прогностические карты (ventusky.com)
Прогностическая карта высоты нижней границы облаков по Вожега (windy.com)
Выбрать другой город

Прогноз предназначен для личного научно-познавательного использования частными лицами
и не предназначен для принятия важных решений и выполнения реальных полётов воздушных судов

При копировании или ином использовании любых материалов данного сайта ссылка на © meteocenter.asia обязательна.

1.04/2